Time;durP1;ratioP1;P1;durP2;ratioP2;P2;SDS_P1;SDS_P2;PMS_P1;PMS_P2;Temp;Humidity;BMP_temperature;BMP_pressure;BME280_temperature;BME280_humidity;BME280_pressure;Samples;Min_cycle;Max_cycle;Signal;HPM_P1;HPM_P2
2022/07/18 00:01:02;;;;;;;4.10;3.70;;;28.00;63.30;;;;;;5115100;28;20024;-72
2022/07/18 00:03:27;;;;;;;4.40;4.10;;;28.00;63.30;;;;;;5115023;28;20579;-72
2022/07/18 00:05:53;;;;;;;4.00;3.75;;;28.00;63.30;;;;;;5115367;28;20395;-71
2022/07/18 00:08:19;;;;;;;4.43;4.13;;;28.10;63.30;;;;;;5114887;28;20028;-72
2022/07/18 00:10:45;;;;;;;3.83;3.53;;;28.10;63.60;;;;;;5115073;28;20158;-72
2022/07/18 00:13:11;;;;;;;4.32;4.03;;;28.10;63.50;;;;;;5114827;28;20022;-72
2022/07/18 00:15:37;;;;;;;4.53;4.18;;;28.10;63.60;;;;;;5114063;28;20506;-72
2022/07/18 00:18:03;;;;;;;4.70;4.30;;;28.10;63.50;;;;;;5114792;28;20022;-72
2022/07/18 00:20:29;;;;;;;4.53;4.18;;;28.00;63.30;;;;;;5114808;28;20493;-71
2022/07/18 00:22:55;;;;;;;4.07;3.78;;;28.00;63.40;;;;;;5114795;28;20103;-71
2022/07/18 00:25:22;;;;;;;4.88;4.55;;;27.90;63.90;;;;;;5114805;28;20483;-72
2022/07/18 00:27:48;;;;;;;5.13;4.70;;;27.90;64.00;;;;;;5114694;28;20047;-72
2022/07/18 00:30:14;;;;;;;4.63;4.32;;;27.90;64.00;;;;;;5114650;28;20525;-72
2022/07/18 00:32:39;;;;;;;5.28;4.20;;;27.90;63.90;;;;;;5114457;28;20027;-72
2022/07/18 00:35:06;;;;;;;6.07;4.72;;;27.90;64.00;;;;;;5096104;28;20509;-71
2022/07/18 00:37:31;;;;;;;4.88;4.47;;;27.90;64.00;;;;;;5096312;28;20041;-72
2022/07/18 00:39:57;;;;;;;4.72;4.40;;;27.90;63.80;;;;;;5114375;28;20103;-72
2022/07/18 00:42:23;;;;;;;5.95;4.60;;;27.90;63.70;;;;;;5114318;28;20016;-72
2022/07/18 00:44:53;;;;;;;4.75;4.40;;;28.00;64.00;;;;;;5096133;28;20391;-72
2022/07/18 00:47:19;;;;;;;4.97;4.57;;;28.00;63.90;;;;;;5114249;28;20020;-72
2022/07/18 00:49:45;;;;;;;4.45;4.00;;;28.10;63.90;;;;;;5114639;28;20024;-72
2022/07/18 00:52:12;;;;;;;4.60;4.30;;;28.00;64.10;;;;;;5114323;28;20019;-71
2022/07/18 00:54:39;;;;;;;7.90;4.75;;;27.90;64.60;;;;;;5114304;28;20035;-72
2022/07/18 00:57:05;;;;;;;4.65;4.20;;;27.90;64.80;;;;;;5114275;28;20022;-72
2022/07/18 01:02:16;;;;;;;5.28;4.68;;;27.80;64.90;;;;;;5113876;28;20030;-71
2022/07/18 01:04:42;;;;;;;4.68;4.38;;;27.70;65.20;;;;;;5114171;28;20028;-72
2022/07/18 01:07:09;;;;;;;4.97;4.57;;;27.80;65.10;;;;;;5114154;28;20046;-72
2022/07/18 01:09:35;;;;;;;4.80;4.43;;;27.70;65.10;;;;;;5113977;28;20020;-72
2022/07/18 01:12:02;;;;;;;4.88;4.45;;;27.70;66.10;;;;;;5095692;28;20391;-72
2022/07/18 01:14:28;;;;;;;5.57;5.15;;;27.70;65.30;;;;;;5113745;28;20482;-72
2022/07/18 01:16:53;;;;;;;5.35;4.90;;;27.80;65.50;;;;;;5113965;28;20023;-72
2022/07/18 01:19:19;;;;;;;5.07;4.68;;;27.80;65.60;;;;;;5113986;28;20034;-72
2022/07/18 01:21:45;;;;;;;5.75;5.22;;;27.70;66.00;;;;;;5113804;28;20054;-72
2022/07/18 01:24:11;;;;;;;7.22;4.47;;;27.80;66.10;;;;;;5095500;28;20076;-71
2022/07/18 01:26:36;;;;;;;8.52;5.10;;;27.70;66.50;;;;;;5113687;28;20020;-72
2022/07/18 01:29:02;;;;;;;6.25;5.38;;;27.70;66.80;;;;;;5113553;28;20031;-72
2022/07/18 01:31:33;;;;;;;5.57;5.18;;;27.70;66.70;;;;;;5095361;28;20038;-72
2022/07/18 01:33:59;;;;;;;6.22;5.40;;;27.60;66.80;;;;;;5113594;28;20058;-72
2022/07/18 01:36:25;;;;;;;5.88;5.40;;;27.60;67.90;;;;;;5113958;28;20028;-72
2022/07/18 01:38:51;;;;;;;5.78;5.28;;;27.60;67.00;;;;;;5113712;28;20475;-72
2022/07/18 01:41:17;;;;;;;5.38;4.97;;;27.70;67.90;;;;;;5113428;28;20034;-72
2022/07/18 01:43:43;;;;;;;6.07;5.55;;;27.70;66.80;;;;;;5113634;28;20480;-72
2022/07/18 01:46:10;;;;;;;5.72;5.22;;;27.70;67.00;;;;;;5113658;28;20024;-72
2022/07/18 01:48:40;;;;;;;5.85;5.35;;;27.70;67.20;;;;;;5113403;28;20024;-72
2022/07/18 01:51:09;;;;;;;5.70;4.65;;;27.70;67.40;;;;;;5113575;28;20019;-72
2022/07/18 01:53:40;;;;;;;5.55;5.15;;;27.60;67.50;;;;;;5113552;28;20024;-72
2022/07/18 01:56:07;;;;;;;6.07;5.63;;;27.60;67.50;;;;;;5113389;28;20386;-72
2022/07/18 01:58:32;;;;;;;6.80;5.68;;;27.60;67.80;;;;;;5113547;28;20047;-72
2022/07/18 02:00:58;;;;;;;6.95;6.25;;;27.60;67.90;;;;;;5113369;28;20047;-72
2022/07/18 02:03:24;;;;;;;6.03;5.45;;;27.50;67.90;;;;;;5113339;28;20051;-72
2022/07/18 02:05:50;;;;;;;6.20;5.70;;;27.50;68.20;;;;;;5113477;28;20426;-72
2022/07/18 02:08:16;;;;;;;6.70;6.07;;;27.50;68.30;;;;;;5113504;28;20019;-72
2022/07/18 02:10:41;;;;;;;6.25;5.75;;;27.40;68.40;;;;;;5113279;28;20130;-72
2022/07/18 02:13:07;;;;;;;8.70;6.68;;;27.30;68.80;;;;;;5094899;28;20555;-72
2022/07/18 02:15:33;;;;;;;6.50;6.00;;;27.30;68.80;;;;;;5113558;28;20089;-72
2022/07/18 02:17:59;;;;;;;6.93;6.30;;;27.30;68.90;;;;;;5094834;28;20015;-72
2022/07/18 02:20:24;;;;;;;6.82;6.22;;;27.30;68.60;;;;;;5113259;28;20115;-73
2022/07/18 02:22:50;;;;;;;6.70;6.20;;;27.40;68.80;;;;;;5113115;28;20475;-72
2022/07/18 02:25:16;;;;;;;6.10;5.68;;;27.40;69.00;;;;;;5113047;28;20027;-73
2022/07/18 02:27:42;;;;;;;7.30;6.63;;;27.40;69.10;;;;;;5113120;28;20020;-72
2022/07/18 02:30:09;;;;;;;7.50;6.18;;;27.50;69.50;;;;;;5113404;28;20030;-72
2022/07/18 02:32:37;;;;;;;6.55;6.03;;;27.40;69.60;;;;;;5113180;28;20112;-72
2022/07/18 02:35:04;;;;;;;6.72;6.22;;;27.30;69.60;;;;;;5113057;28;20051;-72
2022/07/18 02:37:30;;;;;;;7.50;6.80;;;27.20;70.20;;;;;;5114040;28;20016;-72
2022/07/18 02:39:56;;;;;;;7.05;6.47;;;27.20;71.20;;;;;;5116845;28;20027;-72
2022/07/18 02:42:22;;;;;;;6.88;6.20;;;27.20;70.70;;;;;;5098377;28;20016;-73
2022/07/18 02:44:47;;;;;;;6.57;6.00;;;27.20;70.80;;;;;;5116658;28;20030;-73
2022/07/18 02:47:13;;;;;;;10.32;6.78;;;27.20;71.30;;;;;;5116779;28;20053;-72
2022/07/18 02:49:39;;;;;;;8.73;7.05;;;27.30;71.30;;;;;;5116644;28;20023;-72
2022/07/18 02:52:08;;;;;;;8.10;7.32;;;27.30;71.30;;;;;;5116448;28;20023;-72
2022/07/18 02:54:35;;;;;;;7.40;6.70;;;27.40;71.10;;;;;;5098137;28;20047;-72
2022/07/18 02:57:01;;;;;;;7.65;6.95;;;27.40;71.20;;;;;;5116397;28;20035;-72
2022/07/18 02:59:27;;;;;;;8.07;7.28;;;27.40;71.10;;;;;;5116650;28;20023;-72
2022/07/18 03:01:54;;;;;;;8.85;7.05;;;27.30;71.80;;;;;;5098093;28;20065;-72
2022/07/18 03:04:21;;;;;;;7.72;7.03;;;27.30;72.00;;;;;;5115103;28;20054;-73
2022/07/18 03:06:47;;;;;;;7.40;6.80;;;27.30;71.80;;;;;;5115193;28;20032;-72
2022/07/18 03:09:14;;;;;;;8.60;7.70;;;27.30;71.90;;;;;;5115110;28;20375;-72
2022/07/18 03:11:39;;;;;;;8.60;7.28;;;27.30;71.60;;;;;;5096732;28;20394;-72
2022/07/18 03:14:05;;;;;;;8.55;7.75;;;27.40;71.60;;;;;;5096675;28;20027;-72
2022/07/18 03:16:31;;;;;;;8.73;7.90;;;27.40;71.50;;;;;;5115018;28;20607;-72
2022/07/18 03:18:57;;;;;;;9.45;7.55;;;27.30;72.50;;;;;;5096861;28;20024;-72
2022/07/18 03:21:23;;;;;;;8.25;7.55;;;27.30;72.20;;;;;;5114785;28;20053;-72
2022/07/18 03:23:49;;;;;;;9.90;8.00;;;27.30;72.40;;;;;;5114846;28;20055;-72
2022/07/18 03:26:14;;;;;;;11.50;7.43;;;27.30;72.80;;;;;;5114793;28;20499;-72
2022/07/18 03:28:40;;;;;;;8.80;7.93;;;27.40;73.00;;;;;;5114747;28;20534;-72
2022/07/18 03:31:06;;;;;;;9.85;8.43;;;27.30;72.80;;;;;;5114840;28;20110;-72
2022/07/18 03:33:32;;;;;;;7.68;6.97;;;27.30;72.70;;;;;;5114698;28;20019;-72
2022/07/18 03:35:58;;;;;;;12.10;8.20;;;27.20;73.00;;;;;;5114611;28;20122;-72
2022/07/18 03:38:24;;;;;;;8.82;8.10;;;27.20;73.40;;;;;;5114552;28;20522;-72
2022/07/18 03:40:49;;;;;;;8.77;7.88;;;27.20;73.70;;;;;;5114607;28;20166;-72
2022/07/18 03:43:15;;;;;;;8.23;7.20;;;27.20;73.80;;;;;;5114617;28;20020;-72
2022/07/18 03:45:41;;;;;;;8.90;8.00;;;27.30;73.80;;;;;;5096207;28;20378;-72
2022/07/18 03:48:06;;;;;;;7.72;6.93;;;27.30;73.80;;;;;;5114230;28;20463;-72
2022/07/18 03:50:33;;;;;;;11.15;8.20;;;27.30;74.00;;;;;;5095188;28;20015;-72
2022/07/18 03:53:00;;;;;;;8.05;7.32;;;27.30;74.10;;;;;;5096062;28;20027;-72
2022/07/18 03:55:26;;;;;;;8.40;7.60;;;27.30;74.10;;;;;;5114283;28;20049;-72
2022/07/18 03:57:52;;;;;;;8.85;7.95;;;27.30;74.20;;;;;;5114480;28;20077;-72
2022/07/18 04:00:18;;;;;;;8.77;7.97;;;27.30;74.30;;;;;;5114255;28;20433;-72
2022/07/18 04:02:46;;;;;;;10.40;7.90;;;27.30;74.30;;;;;;5067336;28;1327932;-72
2022/07/18 04:05:13;;;;;;;8.38;7.65;;;27.20;74.80;;;;;;5115119;28;20031;-72
2022/07/18 04:07:39;;;;;;;9.00;8.20;;;27.30;75.00;;;;;;5115177;28;20026;-72
2022/07/18 04:10:07;;;;;;;9.95;7.43;;;27.30;75.20;;;;;;5114916;28;20023;-72
2022/07/18 04:12:32;;;;;;;10.68;8.20;;;27.30;75.60;;;;;;5115094;28;20023;-72
2022/07/18 04:14:58;;;;;;;11.10;7.95;;;27.30;75.30;;;;;;5114905;28;20031;-72
2022/07/18 04:17:24;;;;;;;11.73;8.65;;;27.30;75.90;;;;;;5114831;28;20018;-72
2022/07/18 04:19:50;;;;;;;9.00;8.18;;;27.20;76.00;;;;;;5114925;28;20103;-72
2022/07/18 04:22:16;;;;;;;10.85;8.85;;;27.20;76.30;;;;;;5096599;28;20558;-72
2022/07/18 04:24:42;;;;;;;12.00;8.70;;;27.20;76.70;;;;;;5114758;28;20107;-72
2022/07/18 04:27:08;;;;;;;10.88;8.52;;;27.20;77.50;;;;;;5114621;28;20050;-72
2022/07/18 04:29:36;;;;;;;9.32;8.43;;;27.20;77.30;;;;;;5114972;28;20028;-72
2022/07/18 04:32:01;;;;;;;9.60;8.70;;;27.20;77.30;;;;;;5114631;28;20020;-72
2022/07/18 04:34:27;;;;;;;9.65;8.32;;;27.20;77.80;;;;;;5114563;28;20487;-72
2022/07/18 04:36:53;;;;;;;11.18;7.70;;;27.20;77.80;;;;;;5096243;28;20023;-72
2022/07/18 04:39:19;;;;;;;10.48;9.18;;;27.10;77.90;;;;;;5096441;28;20053;-72
2022/07/18 04:41:45;;;;;;;8.52;7.80;;;27.10;77.80;;;;;;5114342;28;20012;-72
2022/07/18 04:44:10;;;;;;;9.65;8.07;;;27.10;77.90;;;;;;5114641;28;20028;-72
2022/07/18 04:46:36;;;;;;;9.88;8.10;;;27.10;78.30;;;;;;5114360;28;20107;-72
2022/07/18 04:49:02;;;;;;;12.38;7.78;;;27.00;78.50;;;;;;5114138;28;20438;-72
2022/07/18 04:51:28;;;;;;;8.77;7.45;;;27.10;79.00;;;;;;5114355;28;20026;-73
2022/07/18 04:53:54;;;;;;;13.65;8.48;;;27.10;78.70;;;;;;5114260;28;20391;-72
2022/07/18 04:56:21;;;;;;;8.25;7.45;;;27.10;78.80;;;;;;5114267;28;20382;-71
2022/07/18 04:58:47;;;;;;;8.45;7.70;;;27.10;78.90;;;;;;5114325;28;20027;-72
2022/07/18 05:01:13;;;;;;;8.73;7.57;;;27.10;79.00;;;;;;5114099;28;20011;-72
2022/07/18 05:03:39;;;;;;;10.65;8.10;;;27.10;79.10;;;;;;5113860;28;20502;-72
2022/07/18 05:06:05;;;;;;;8.13;7.15;;;27.10;79.60;;;;;;5113974;28;20039;-72
2022/07/18 05:08:31;;;;;;;9.07;7.65;;;27.10;79.70;;;;;;5095797;28;20023;-72
2022/07/18 05:10:56;;;;;;;9.98;8.35;;;27.10;80.10;;;;;;5095886;28;20481;-72
2022/07/18 05:13:22;;;;;;;8.57;7.82;;;27.00;80.70;;;;;;5113758;28;20027;-72
2022/07/18 05:15:48;;;;;;;9.88;7.75;;;27.10;81.50;;;;;;5113902;28;20019;-72
2022/07/18 05:18:14;;;;;;;8.45;7.53;;;27.10;81.30;;;;;;5113918;28;20391;-72
2022/07/18 05:20:40;;;;;;;8.50;7.40;;;27.20;81.60;;;;;;5113700;28;20023;-72
2022/07/18 05:23:06;;;;;;;8.23;7.10;;;27.20;81.30;;;;;;5113858;28;20039;-72
2022/07/18 05:25:31;;;;;;;11.65;7.57;;;27.30;82.30;;;;;;5114160;28;20023;-72
2022/07/18 05:27:57;;;;;;;9.65;7.63;;;27.30;80.80;;;;;;5095441;28;20122;-72
2022/07/18 05:30:24;;;;;;;8.98;8.07;;;27.40;80.10;;;;;;5113751;28;20112;-72
2022/07/18 05:32:51;;;;;;;7.85;7.07;;;27.40;80.90;;;;;;5113845;28;20534;-72
2022/07/18 05:35:17;;;;;;;8.43;7.65;;;27.50;80.60;;;;;;5113643;28;20020;-72
2022/07/18 05:37:43;;;;;;;8.73;7.68;;;27.40;80.90;;;;;;5113660;28;20019;-72
2022/07/18 05:40:11;;;;;;;8.52;7.57;;;27.40;80.40;;;;;;5113698;28;20436;-72
2022/07/18 05:42:37;;;;;;;8.15;7.47;;;27.50;81.40;;;;;;5113626;28;20048;-72
2022/07/18 05:45:04;;;;;;;9.02;7.53;;;27.50;81.50;;;;;;5113413;28;20020;-72
2022/07/18 05:47:30;;;;;;;10.23;7.97;;;27.50;81.20;;;;;;5113537;28;20016;-72
2022/07/18 05:49:55;;;;;;;7.97;7.00;;;27.50;80.50;;;;;;5113946;28;20024;-72
2022/07/18 05:52:21;;;;;;;10.18;7.38;;;27.60;81.00;;;;;;5113638;28;20038;-72
2022/07/18 05:54:47;;;;;;;12.57;7.88;;;27.60;80.70;;;;;;5113384;28;20032;-72
2022/07/18 05:57:13;;;;;;;8.68;7.82;;;27.60;80.40;;;;;;5113433;28;20099;-72
2022/07/18 05:59:38;;;;;;;7.05;6.55;;;27.70;81.20;;;;;;5095087;28;20049;-72
2022/07/18 06:02:04;;;;;;;8.32;7.32;;;27.70;81.50;;;;;;5113200;28;20023;-72
2022/07/18 06:04:30;;;;;;;8.25;7.45;;;27.70;80.00;;;;;;5113447;28;20062;-72
2022/07/18 06:06:56;;;;;;;8.20;7.50;;;27.70;79.30;;;;;;5113173;28;20023;-72
2022/07/18 06:09:22;;;;;;;9.07;6.97;;;27.70;78.20;;;;;;5113359;28;20024;-72
2022/07/18 06:11:48;;;;;;;9.63;7.65;;;27.70;78.10;;;;;;5113279;28;20051;-72
2022/07/18 06:14:13;;;;;;;8.57;7.47;;;27.70;78.60;;;;;;5117085;28;20467;-72
2022/07/18 06:16:39;;;;;;;7.30;6.60;;;27.70;81.60;;;;;;5098884;28;20164;-72
2022/07/18 06:19:05;;;;;;;8.30;6.80;;;27.80;82.90;;;;;;5117205;28;20102;-72
2022/07/18 06:21:31;;;;;;;15.02;6.88;;;27.70;83.10;;;;;;5117196;28;20157;-72
2022/07/18 06:23:57;;;;;;;11.07;7.28;;;27.80;83.30;;;;;;5117181;28;20023;-72
2022/07/18 06:26:23;;;;;;;13.38;7.45;;;27.70;85.00;;;;;;5098605;28;20027;-72
2022/07/18 06:28:48;;;;;;;11.80;6.55;;;27.80;84.70;;;;;;5098588;28;20084;-72
2022/07/18 06:31:16;;;;;;;21.73;5.93;;;27.80;83.80;;;;;;5116918;28;20030;-72
2022/07/18 06:33:42;;;;;;;9.10;6.35;;;27.70;83.10;;;;;;5116885;28;20023;-72
2022/07/18 06:36:08;;;;;;;8.57;5.43;;;27.80;83.30;;;;;;5116786;28;20038;-72
2022/07/18 06:38:34;;;;;;;11.48;5.20;;;27.80;82.10;;;;;;5116793;28;20502;-72
2022/07/18 06:41:00;;;;;;;15.52;5.55;;;27.80;82.10;;;;;;5098433;28;20505;-72
2022/07/18 06:43:25;;;;;;;7.40;4.75;;;27.80;81.00;;;;;;5098310;28;20023;-72
2022/07/18 06:45:52;;;;;;;15.93;5.22;;;27.80;80.00;;;;;;5098382;28;20024;-73
2022/07/18 06:48:18;;;;;;;5.95;4.78;;;27.80;76.80;;;;;;5116664;28;20051;-72
2022/07/18 06:50:44;;;;;;;12.20;5.72;;;27.80;76.50;;;;;;5116583;28;20022;-72
2022/07/18 06:53:10;;;;;;;9.93;5.10;;;27.90;73.90;;;;;;5116451;28;20099;-72
2022/07/18 06:55:36;;;;;;;6.13;5.53;;;28.00;74.70;;;;;;5098122;28;20020;-72
2022/07/18 06:58:02;;;;;;;7.35;5.20;;;28.00;72.70;;;;;;5098124;28;20028;-72
2022/07/18 07:00:28;;;;;;;6.28;4.97;;;28.00;71.80;;;;;;5116480;28;20051;-72
2022/07/18 07:02:53;;;;;;;5.13;4.70;;;28.00;70.70;;;;;;5116178;28;20044;-72
2022/07/18 07:05:21;;;;;;;6.85;4.95;;;28.10;70.30;;;;;;5116182;28;20031;-72
2022/07/18 07:07:47;;;;;;;6.82;5.38;;;28.20;69.80;;;;;;5116527;28;20517;-73
2022/07/18 07:10:14;;;;;;;5.57;5.00;;;28.10;67.90;;;;;;5116332;28;20163;-73
2022/07/18 07:12:45;;;;;;;7.18;5.10;;;28.10;67.70;;;;;;5097853;28;20031;-72
2022/07/18 07:15:11;;;;;;;12.07;4.78;;;28.10;66.00;;;;;;5116027;28;20116;-72
2022/07/18 07:17:37;;;;;;;4.85;4.05;;;28.20;68.20;;;;;;5097829;28;20117;-72
2022/07/18 07:20:07;;;;;;;5.50;4.97;;;28.30;68.90;;;;;;5116131;28;20016;-72
2022/07/18 07:22:41;;;;;;;10.18;5.00;;;28.30;66.80;;;;;;5097730;28;20023;-72
2022/07/18 07:25:08;;;;;;;11.20;4.45;;;28.30;66.60;;;;;;5097335;28;20425;-72
2022/07/18 07:27:34;;;;;;;9.55;4.75;;;28.30;66.90;;;;;;5115920;28;20034;-72
2022/07/18 07:30:00;;;;;;;11.05;4.57;;;28.30;67.50;;;;;;5116126;28;20023;-72
2022/07/18 07:32:25;;;;;;;8.18;5.03;;;28.40;67.80;;;;;;5115785;28;20089;-72
2022/07/18 07:34:51;;;;;;;4.65;4.25;;;28.40;67.00;;;;;;5115740;28;20028;-72
2022/07/18 07:37:17;;;;;;;5.20;4.35;;;28.40;67.70;;;;;;5115694;28;20078;-72
2022/07/18 07:39:43;;;;;;;9.68;4.97;;;28.50;68.50;;;;;;5115677;28;20072;-72
2022/07/18 07:42:08;;;;;;;5.75;4.30;;;28.50;68.30;;;;;;5097319;28;20089;-72
2022/07/18 07:44:34;;;;;;;5.15;4.32;;;28.50;66.10;;;;;;5115420;28;20036;-72
2022/07/18 07:47:00;;;;;;;7.80;3.88;;;28.50;65.50;;;;;;5115554;28;20164;-72
2022/07/18 07:49:26;;;;;;;5.88;4.25;;;28.50;66.20;;;;;;5115496;28;20023;-72
2022/07/18 07:51:52;;;;;;;5.22;4.30;;;28.50;67.00;;;;;;5115422;28;20065;-72
2022/07/18 07:54:17;;;;;;;4.65;3.60;;;28.60;66.20;;;;;;5115311;28;20023;-73
2022/07/18 07:56:43;;;;;;;6.93;4.00;;;28.70;66.20;;;;;;5096931;28;20016;-72
2022/07/18 07:59:09;;;;;;;4.18;3.88;;;28.60;64.80;;;;;;5115392;28;20034;-72
2022/07/18 08:01:35;;;;;;;3.38;3.15;;;28.70;64.60;;;;;;5096841;28;20024;-72
2022/07/18 08:04:00;;;;;;;5.72;3.25;;;28.70;63.50;;;;;;5096716;28;20079;-72
2022/07/18 08:06:26;;;;;;;5.95;3.30;;;28.70;64.20;;;;;;5114988;28;20019;-72
2022/07/18 08:08:52;;;;;;;3.45;2.78;;;28.80;63.30;;;;;;5114921;28;20027;-72
2022/07/18 08:11:18;;;;;;;4.40;2.83;;;28.90;62.70;;;;;;5096713;28;20024;-72
2022/07/18 08:13:44;;;;;;;8.65;2.95;;;28.90;62.20;;;;;;5115107;28;20028;-72
2022/07/18 08:16:09;;;;;;;3.65;3.35;;;28.90;60.70;;;;;;5115152;28;20020;-72
2022/07/18 08:18:35;;;;;;;3.78;2.78;;;29.00;59.70;;;;;;5114836;28;20540;-72
2022/07/18 08:21:01;;;;;;;3.08;2.88;;;29.10;59.90;;;;;;5114884;28;20064;-72
2022/07/18 08:23:27;;;;;;;3.00;2.80;;;29.10;59.80;;;;;;5114692;28;20016;-72
2022/07/18 08:25:52;;;;;;;3.20;2.95;;;29.20;59.90;;;;;;5096573;28;20016;-72
2022/07/18 08:28:18;;;;;;;4.05;3.13;;;29.20;59.10;;;;;;5114824;28;20399;-72
2022/07/18 08:30:44;;;;;;;4.43;3.25;;;29.20;58.70;;;;;;5114868;28;20019;-72
2022/07/18 08:33:10;;;;;;;3.85;3.35;;;29.30;58.90;;;;;;5114685;28;20479;-72
2022/07/18 08:35:36;;;;;;;4.30;3.90;;;29.30;59.80;;;;;;5113795;28;20037;-72
2022/07/18 08:38:02;;;;;;;4.72;4.30;;;29.40;58.70;;;;;;5114582;28;20043;-74
2022/07/18 08:40:29;;;;;;;5.15;4.38;;;29.40;57.70;;;;;;5114523;28;20015;-75
2022/07/18 08:42:56;;;;;;;6.43;4.03;;;29.50;57.70;;;;;;5096289;28;20022;-75
2022/07/18 08:45:24;;;;;;;5.47;4.50;;;29.50;57.90;;;;;;5114541;28;20032;-74
2022/07/18 08:47:50;;;;;;;6.22;4.72;;;29.60;57.30;;;;;;5114482;28;20051;-75
2022/07/18 08:50:16;;;;;;;5.30;4.90;;;29.60;58.10;;;;;;5114585;28;20023;-75
2022/07/18 08:52:42;;;;;;;7.15;5.00;;;29.70;56.80;;;;;;5114203;28;20379;-74
2022/07/18 08:55:09;;;;;;;6.18;4.78;;;29.60;56.40;;;;;;5114064;28;20035;-75
2022/07/18 08:57:34;;;;;;;5.00;4.60;;;29.70;56.70;;;;;;5114312;28;20079;-74
2022/07/18 09:00:04;;;;;;;6.65;5.22;;;29.80;56.70;;;;;;5114321;28;20094;-75
2022/07/18 09:02:30;;;;;;;5.00;4.63;;;29.80;56.10;;;;;;5113931;28;20035;-74
2022/07/18 09:04:55;;;;;;;6.65;4.75;;;29.80;55.70;;;;;;5114255;28;20097;-75
2022/07/18 09:07:30;;;;;;;15.35;5.18;;;29.80;55.70;;;;;;5114032;28;20028;-74
2022/07/18 09:10:00;;;;;;;5.00;4.38;;;29.90;56.80;;;;;;5114151;28;20024;-74
2022/07/18 09:12:28;;;;;;;5.72;5.13;;;30.00;55.90;;;;;;5114212;28;20038;-75
2022/07/18 09:14:54;;;;;;;6.97;4.70;;;30.00;56.20;;;;;;5113987;28;20497;-74
2022/07/18 09:17:26;;;;;;;5.00;4.50;;;30.00;55.40;;;;;;5113800;28;20042;-75
2022/07/18 09:19:58;;;;;;;;;;;30.20;55.80;;;;;;5114319;28;20019;-75
2022/07/18 09:22:26;;;;;;;4.88;4.47;;;30.20;55.20;;;;;;5113723;28;19910;-75
2022/07/18 09:25:13;;;;;;;7.78;4.40;;;30.20;55.30;;;;;;5095608;28;20024;-74
2022/07/18 09:27:47;;;;;;;4.50;4.10;;;30.30;56.20;;;;;;5095441;28;20034;-74
2022/07/18 09:30:21;;;;;;;4.20;3.80;;;30.30;54.80;;;;;;5113699;28;20023;-75
2022/07/18 09:32:51;;;;;;;6.45;3.78;;;30.30;55.10;;;;;;5095425;28;20051;-74
2022/07/18 09:35:26;;;;;;;4.82;4.32;;;30.30;55.10;;;;;;5113763;28;20089;-75
2022/07/18 09:37:57;;;;;;;6.63;4.03;;;30.40;55.30;;;;;;5113567;28;20106;-74
2022/07/18 09:40:29;;;;;;;4.47;4.07;;;30.40;54.00;;;;;;5113761;28;20020;-74
2022/07/18 09:42:58;;;;;;;4.75;4.28;;;30.50;54.70;;;;;;5113564;28;20023;-75
2022/07/18 09:45:29;;;;;;;9.23;4.75;;;30.60;54.00;;;;;;5113641;28;20031;-75
2022/07/18 09:47:58;;;;;;;4.63;4.10;;;30.60;53.50;;;;;;5098944;28;20023;-74
2022/07/18 09:50:28;;;;;;;5.53;5.05;;;30.70;53.50;;;;;;5117733;28;20595;-75
2022/07/18 09:53:05;;;;;;;7.35;5.18;;;30.80;53.70;;;;;;5117930;28;20074;-74
2022/07/18 09:55:32;;;;;;;8.00;5.45;;;30.80;53.90;;;;;;5099266;28;20081;-75
2022/07/18 09:58:01;;;;;;;6.10;5.60;;;30.80;52.80;;;;;;5117734;28;20077;-76
2022/07/18 10:00:32;;;;;;;7.22;6.70;;;30.60;55.50;;;;;;5117640;28;20020;-72
2022/07/18 10:02:58;;;;;;;;;;;30.50;56.20;;;;;;5117865;28;20067;-71
2022/07/18 10:05:36;;;;;;;7.20;6.60;;;30.40;57.30;;;;;;5117682;28;19904;-72
2022/07/18 10:08:05;;;;;;;7.05;6.43;;;30.40;56.20;;;;;;5117616;28;20031;-71
2022/07/18 10:10:31;;;;;;;7.07;5.90;;;30.30;55.50;;;;;;5117642;28;20024;-72
2022/07/18 10:12:59;;;;;;;12.13;6.05;;;30.30;54.20;;;;;;5117070;28;20043;-75
2022/07/18 10:15:31;;;;;;;6.82;5.93;;;30.30;54.40;;;;;;5117150;28;20103;-75
2022/07/18 10:17:57;;;;;;;10.93;7.22;;;30.30;53.40;;;;;;5117217;28;20034;-75
2022/07/18 10:20:32;;;;;;;8.55;6.85;;;30.30;54.50;;;;;;5117254;28;20024;-75
2022/07/18 10:23:06;;;;;;;6.82;6.32;;;30.40;54.50;;;;;;5117010;28;20107;-75
2022/07/18 10:25:32;;;;;;;7.30;6.60;;;30.40;54.50;;;;;;5098726;28;20043;-75
2022/07/18 10:28:07;;;;;;;7.47;6.32;;;30.50;53.70;;;;;;5116995;28;20024;-75
2022/07/18 10:30:34;;;;;;;6.20;5.70;;;30.50;54.60;;;;;;5116870;28;20034;-75
2022/07/18 10:33:01;;;;;;;6.72;6.07;;;30.50;54.10;;;;;;5117001;28;20378;-75
2022/07/18 10:36:05;;;;;;;6.00;5.50;;;30.60;53.80;;;;;;5098530;28;20111;-75
2022/07/18 10:38:31;;;;;;;6.80;5.85;;;30.60;54.00;;;;;;5116910;28;20027;-75
2022/07/18 10:41:12;;;;;;;6.22;5.50;;;30.70;54.00;;;;;;5116722;28;20378;-75
2022/07/18 10:43:43;;;;;;;6.57;5.28;;;30.70;53.70;;;;;;5116985;28;20028;-75
2022/07/18 10:46:10;;;;;;;9.50;5.88;;;30.80;54.30;;;;;;5116794;28;20136;-75
2022/07/18 10:48:36;;;;;;;5.72;5.20;;;30.90;54.50;;;;;;5098347;28;20554;-74
2022/07/18 10:51:05;;;;;;;8.15;5.85;;;30.90;53.90;;;;;;5116599;28;20051;-75
2022/07/18 10:53:53;;;;;;;9.20;5.80;;;31.30;53.10;;;;;;5116487;28;20027;-75
2022/07/18 10:56:28;;;;;;;7.55;5.60;;;31.50;52.10;;;;;;5116537;28;20016;-75
2022/07/18 10:59:01;;;;;;;5.70;5.32;;;31.70;52.60;;;;;;5115881;27;20038;-74
2022/07/18 11:01:27;;;;;;;7.57;6.10;;;31.80;51.80;;;;;;5116602;28;20463;-75
2022/07/18 11:04:24;;;;;;;6.70;6.18;;;31.90;51.10;;;;;;5116228;28;20044;-75
2022/07/18 11:07:22;;;;;;;7.20;6.38;;;32.10;49.80;;;;;;5098093;28;20513;-74
2022/07/18 11:09:48;;;;;;;8.30;6.35;;;32.10;50.20;;;;;;5060598;28;20032;-75
2022/07/18 11:12:17;;;;;;;10.02;6.03;;;32.20;49.70;;;;;;5116220;28;20054;-75
2022/07/18 11:15:06;;;;;;;6.28;5.78;;;32.30;49.90;;;;;;5097791;28;20062;-74
2022/07/18 11:17:56;;;;;;;7.70;5.82;;;32.40;50.60;;;;;;5116307;28;20033;-74
2022/07/18 11:20:29;;;;;;;6.57;5.85;;;32.50;50.00;;;;;;5116274;28;20027;-74
2022/07/18 11:22:56;;;;;;;8.07;6.13;;;32.50;51.00;;;;;;5115927;28;20022;-74
2022/07/18 11:25:26;;;;;;;6.65;6.05;;;32.60;49.80;;;;;;5116243;28;20028;-74
2022/07/18 11:27:52;;;;;;;7.00;6.28;;;32.60;48.60;;;;;;5116195;28;20122;-74
2022/07/18 11:30:22;;;;;;;6.70;6.15;;;32.70;48.80;;;;;;5115912;28;20499;-75
2022/07/18 11:32:49;;;;;;;8.27;6.55;;;32.70;49.60;;;;;;5116140;28;20106;-75
2022/07/18 11:35:20;;;;;;;6.30;5.80;;;32.70;48.80;;;;;;5115719;28;20024;-75
2022/07/18 11:37:50;;;;;;;11.05;6.32;;;32.80;48.90;;;;;;5115845;28;20547;-75
2022/07/18 11:40:16;;;;;;;7.00;5.75;;;32.90;49.00;;;;;;5115878;28;20371;-75
2022/07/18 11:42:42;;;;;;;8.35;6.20;;;33.00;50.00;;;;;;5115788;28;20051;-74
2022/07/18 11:45:12;;;;;;;9.25;6.57;;;33.00;48.70;;;;;;5097306;28;20035;-74
2022/07/18 11:47:53;;;;;;;7.85;6.18;;;33.00;48.30;;;;;;5115709;28;20490;-74
2022/07/18 11:50:34;;;;;;;7.13;6.28;;;33.10;48.70;;;;;;5115916;28;20445;-74
2022/07/18 11:53:00;;;;;;;6.85;6.18;;;33.20;48.70;;;;;;5115385;28;20028;-74
2022/07/18 11:55:37;;;;;;;10.23;6.28;;;33.30;48.50;;;;;;5097012;28;20027;-75
2022/07/18 11:58:11;;;;;;;12.20;6.57;;;33.40;48.40;;;;;;5115336;28;20031;-75
2022/07/18 12:00:38;;;;;;;8.63;7.03;;;33.40;47.70;;;;;;5115260;28;20093;-74
2022/07/18 12:03:19;;;;;;;8.40;6.20;;;33.40;48.00;;;;;;5115116;28;20043;-75
2022/07/18 12:05:50;;;;;;;6.03;5.53;;;33.40;47.40;;;;;;5115468;28;20483;-75
2022/07/18 12:08:36;;;;;;;10.88;6.05;;;33.50;48.30;;;;;;5096780;28;20061;-75
2022/07/18 12:11:10;;;;;;;7.88;6.55;;;33.70;48.60;;;;;;5114246;28;20027;-75
2022/07/18 12:13:43;;;;;;;8.20;6.07;;;33.70;47.50;;;;;;5115307;28;20106;-75
2022/07/18 12:16:23;;;;;;;6.57;5.70;;;33.70;47.30;;;;;;5115130;28;20427;-74
2022/07/18 12:18:50;;;;;;;6.57;5.68;;;33.90;47.60;;;;;;5096785;28;20471;-75
2022/07/18 12:21:16;;;;;;;6.65;6.05;;;33.90;47.50;;;;;;5114924;28;20476;-74
2022/07/18 12:23:42;;;;;;;6.22;5.60;;;33.70;47.50;;;;;;5114819;28;20051;-75
2022/07/18 12:26:08;;;;;;;6.35;5.18;;;34.00;48.20;;;;;;5114381;28;20479;-74
2022/07/18 12:28:33;;;;;;;5.63;4.95;;;34.00;46.70;;;;;;5114834;28;20016;-75
2022/07/18 12:30:59;;;;;;;4.75;4.35;;;34.10;47.40;;;;;;5114770;28;20035;-74
2022/07/18 12:33:26;;;;;;;5.40;4.88;;;34.00;47.10;;;;;;5096323;28;20386;-75
2022/07/18 12:35:59;;;;;;;7.28;4.55;;;34.20;48.00;;;;;;5114543;28;20034;-74
2022/07/18 12:38:25;;;;;;;5.82;4.20;;;33.90;46.60;;;;;;5114755;28;20386;-75
2022/07/18 12:41:00;;;;;;;7.22;4.85;;;34.00;47.90;;;;;;5114662;28;20106;-74
2022/07/18 12:43:31;;;;;;;7.10;4.47;;;34.00;47.00;;;;;;5114592;28;20031;-74
2022/07/18 12:45:59;;;;;;;5.28;4.68;;;34.10;47.60;;;;;;5114654;28;20024;-75
2022/07/18 12:48:27;;;;;;;5.38;4.97;;;34.30;47.50;;;;;;5114519;28;20020;-74
2022/07/18 12:51:00;;;;;;;4.97;4.45;;;34.50;47.40;;;;;;5114473;28;20020;-74